• Join FlightAware (Why Join?)
  • Login
  • US Flag 
03:44AM EST


 

Airport Tracker/Info


-or-


 

Live Flight TrackerFlight Track Log ✈ N55NT ✈ 04-Aug-2014 ✈ KPSM - KIAG

Flight Track Log - Related Links

Times and Time Zones

All times are in EDT time to prevent confusion due to time zone crossing. See the N55NT flight status page for this flight to view local times or setup timezone preferences in your user account.

Time Position Orientation Groundspeed Altitude Reporting Facility
EDT Latitude Longitude Course Direction KTS MPH feet Rate Location/Type
04:28PM 43.0500 -70.8000 216° Southwest 111 128 800  Level KA90
04:29PM 43.0167 -70.8333 216° Southwest 125 144 1,600 780 Climbing KA90
04:30PM 42.9833 -70.8667 216° Southwest 137 158 2,600 960 Climbing KA90
04:31PM 42.9889 -70.9058 281° West 127 146 3,400 900 Climbing Boston Center
04:32PM 42.9908 -70.9522 273° West 125 144 4,300 780 Climbing Boston Center
04:33PM 42.9936 -71.0014 274° West 126 145 5,100 720 Climbing Boston Center
04:34PM 43.0092 -71.0486 294° West 135 155 5,900 660 Climbing Boston Center
04:35PM 43.0344 -71.0900 310° West 138 159 6,500 720 Climbing Boston Center
04:36PM 43.0569 -71.1356 304° West 144 166 7,400 780 Climbing Boston Center
04:37PM 43.0422 -71.1914 250° West 148 170 8,200 720 Climbing Boston Center
04:38PM 43.0508 -71.2419 283° West 140 161 9,000 720 Climbing Boston Center
04:39PM 43.0431 -71.2919 258° West 135 155 9,700 780 Climbing Boston Center
04:40PM 43.0497 -71.3475 279° West 136 157 10,700 840 Climbing Boston Center
04:41PM 43.0553 -71.3992 278° West 136 157 11,400 660 Climbing Boston Center
04:42PM 43.0569 -71.4525 272° West 139 160 12,100 660 Climbing Boston Center
04:43PM 43.0594 -71.5108 273° West 143 165 12,800 660 Climbing Boston Center
04:44PM 43.0622 -71.5650 274° West 143 165 13,500 720 Climbing Boston Center
04:45PM 43.0650 -71.6211 274° West 146 168 14,300 720 Climbing Boston Center
04:46PM 43.0675 -71.6808 273° West 146 168 15,000 660 Climbing Boston Center
04:47PM 43.0697 -71.7356 273° West 146 168 15,700 540 Climbing Boston Center
04:48PM 43.0722 -71.7933 273° West 149 171 16,100 180 Climbing Boston Center
04:49PM 43.0739 -71.8650 272° West 172 198 16,100 -60 Level Boston Center
04:50PM 43.0769 -71.9325 274° West 176 203 16,000 -60 Descending Boston Center
04:51PM 43.0794 -71.9969 273° West 174 200 16,000  Level Boston Center
04:52PM 43.0819 -72.0644 273° West 169 194 16,100  Climbing Boston Center
04:53PM 43.0842 -72.1294 273° West 169 194 16,000 -60 Descending Boston Center
04:54PM 43.0861 -72.1931 272° West 169 194 16,000  Level Boston Center
04:55PM 43.0894 -72.2617 274° West 169 194 16,000  Level Boston Center
04:56PM 43.0903 -72.3239 271° West 168 193 16,000  Level Boston Center
04:57PM 43.0928 -72.3872 273° West 167 192 16,000  Level Boston Center
04:58PM 43.0942 -72.4486 272° West 165 190 16,000  Level Boston Center
04:59PM 43.0972 -72.5128 274° West 165 190 16,000  Level Boston Center
05:00PM 43.0997 -72.5758 273° West 166 191 16,000  Level Boston Center
05:01PM 43.1011 -72.6386 272° West 166 191 16,000  Level Boston Center
05:02PM 43.1033 -72.6989 273° West 165 190 16,000  Level Boston Center
05:03PM 43.1053 -72.7703 272° West 163 188 16,000  Level Boston Center
05:04PM 43.1067 -72.8297 272° West 159 183 16,000  Level Boston Center
05:05PM 43.1092 -72.8897 273° West 159 183 16,000  Level Boston Center
05:07PM 43.1106 -72.9511 272° West 159 183 16,000  Level Boston Center
05:08PM 43.1133 -73.0161 273° West 160 184 16,000  Level Boston Center
05:09PM 43.1161 -73.0811 273° West 159 183 16,000  Level Boston Center
05:10PM 43.1169 -73.1411 271° West 160 184 16,000  Level Boston Center
05:11PM 43.1186 -73.2011 272° West 159 183 16,000  Level Boston Center
05:12PM 43.1203 -73.2661 272° West 159 183 16,000  Level Boston Center
05:13PM 43.1222 -73.3258 273° West 159 183 16,000  Level Boston Center
05:14PM 43.1228 -73.3861 271° West 159 183 16,000  Level Boston Center
05:15PM 43.1250 -73.4494 273° West 158 182 16,000  Level Boston Center
05:16PM 43.1269 -73.5114 272° West 159 183 16,000  Level Boston Center
05:17PM 43.1281 -73.5769 271° West 159 183 16,000  Level Boston Center
05:18PM 43.1300 -73.6378 273° West 160 184 16,000  Level Boston Center
05:19PM 43.1308 -73.7006 271° West 161 185 16,000  Level Boston Center
05:20PM 43.1322 -73.7653 272° West 161 185 16,100  Climbing Boston Center
05:21PM 43.1339 -73.8264 272° West 161 185 16,100 -60 Level Boston Center
05:22PM 43.1356 -73.8881 272° West 161 185 16,000 -60 Descending Boston Center
05:23PM 43.1367 -73.9536 271° West 161 185 16,000  Level Boston Center
05:24PM 43.1378 -74.0122 272° West 160 184 16,000  Level Boston Center
05:25PM 43.1392 -74.0714 272° West 159 183 16,000  Level Boston Center
05:26PM 43.1403 -74.1367 271° West 159 183 16,000  Level Boston Center
05:27PM 43.1414 -74.1972 271° West 159 183 16,000  Level Boston Center
05:28PM 43.1428 -74.2628 272° West 161 185 16,000  Level Boston Center
05:29PM 43.1436 -74.3206 271° West 155 178 16,000  Level Boston Center
05:30PM 43.1453 -74.3783 272° West 155 178 16,000  Level Boston Center
05:31PM 43.1458 -74.4408 271° West 154 177 16,000  Level Boston Center
05:32PM 43.1458 -74.4900 270° West 154 177 16,000  Level Boston Center
05:33PM 43.1472 -74.5489 272° West 154 177 16,000  Level Boston Center
05:34PM 43.1475 -74.6200 270° West 155 178 16,000  Level Boston Center
05:35PM 43.1492 -74.6797 272° West 155 178 16,000  Level Boston Center
05:36PM 43.1494 -74.7386 270° West 155 178 16,000  Level Boston Center
05:37PM 43.1506 -74.7986 271° West 156 180 16,000  Level Boston Center
05:38PM 43.1503 -74.8592 270° West 160 184 16,000  Level Boston Center
05:39PM 43.1425 -74.9186 260° West 160 184 16,000  Level Boston Center
05:40PM 43.1356 -74.9769 261° West 159 183 16,000  Level Boston Center
05:41PM 43.1267 -75.0469 260° West 158 182 16,000  Level Boston Center
05:42PM 43.1197 -75.1061 261° West 158 182 16,000  Level Boston Center
05:43PM 43.1114 -75.1650 259° West 158 182 16,000  Level Boston Center
05:44PM 43.1081 -75.2278 266° West 157 181 16,000  Level Boston Center
05:45PM 43.1025 -75.2889 263° West 159 183 16,000  Level Boston Center
05:47PM 43.0964 -75.3489 262° West 159 183 16,000  Level Boston Center
05:48PM 43.0922 -75.4103 265° West 160 184 16,000  Level Boston Center
05:49PM 43.0858 -75.4697 262° West 160 184 16,000  Level Boston Center
05:50PM 43.0811 -75.5294 264° West 159 183 16,000  Level Boston Center
05:51PM 43.0753 -75.5900 263° West 159 183 16,000  Level Boston Center
05:52PM 43.0694 -75.6514 263° West 160 184 16,000  Level Boston Center
05:53PM 43.0622 -75.7228 262° West 159 183 16,000  Level Boston Center
05:54PM 43.0553 -75.7847 261° West 161 185 16,000  Level Boston Center
05:55PM 43.0486 -75.8453 261° West 161 185 16,000  Level Boston Center
05:56PM 43.0419 -75.9081 262° West 166 191 16,000  Level Boston Center
05:57PM 43.0350 -75.9694 261° West 166 191 16,000  Level Boston Center
05:58PM 43.0256 -76.0306 258° West 166 191 16,000  Level Boston Center
05:59PM 43.0178 -76.0911 260° West 165 190 16,000  Level Boston Center
06:00PM 43.0083 -76.1522 258° West 165 190 16,000  Level Boston Center
06:01PM 42.9944 -76.2256 256° West 165 190 16,000  Level Boston Center
06:02PM 42.9828 -76.2864 255° West 165 190 16,000  Level Boston Center
06:03PM 42.9700 -76.3472 254° West 166 191 16,000  Level Boston Center
06:04PM 42.9603 -76.4089 258° West 166 191 16,000  Level Boston Center
06:05PM 42.9481 -76.4686 254° West 166 191 16,000  Level Boston Center
06:06PM 42.9364 -76.5272 255° West 165 190 16,000  Level Boston Center
06:07PM 42.9250 -76.5850 255° West 164 189 16,000  Level Boston Center
06:08PM 42.9119 -76.6564 256° West 162 186 16,000  Level Boston Center
06:09PM 42.9006 -76.7142 255° West 161 185 16,000  Level Boston Center
06:10PM 42.8892 -76.7717 255° West 160 184 16,100 420 Climbing Boston Center
06:11PM 42.8764 -76.8267 252° West 157 181 16,900 480 Climbing Boston Center
06:12PM 42.8647 -76.8811 254° West 155 178 17,200 120 Climbing Boston Center
06:13PM 42.8642 -76.9314 269° West 165 190 17,200  Level Cleveland Center
06:14PM 42.8717 -76.9964 279° West 168 193 17,200  Level Cleveland Center
06:16PM 42.8900 -77.1389 280° West 175 201 17,200  Level Cleveland Center
06:17PM 42.8978 -77.2022 280° West 172 198 17,200  Level Cleveland Center
06:18PM 42.9061 -77.2661 280° West 172 198 17,200  Level Cleveland Center
06:19PM 42.9139 -77.3297 279° West 173 199 17,200 -240 Level Cleveland Center
06:21PM 42.9303 -77.4586 276° West 173 199 16,600 -420 Descending Cleveland Center
06:22PM 42.9417 -77.5414 281° West 182 209 16,000 -540 Descending Cleveland Center
06:23PM 42.9497 -77.6117 279° West 188 216 15,500 -540 Descending Cleveland Center
06:24PM 42.9575 -77.6819 279° West 188 216 15,000 -540 Descending Cleveland Center
06:25PM 42.9669 -77.7531 280° West 190 219 14,500 -540 Descending Cleveland Center
06:26PM 42.9772 -77.8358 280° West 188 216 13,900 -540 Descending Cleveland Center
06:27PM 42.9858 -77.9056 280° West 188 216 13,400 -540 Descending Cleveland Center
06:28PM 42.9936 -77.9736 279° West 186 214 12,800 -780 Descending Cleveland Center
06:29PM 43.0033 -78.0489 280° West 199 229 11,900 -960 Descending Cleveland Center
06:31PM 43.0131 -78.1228 280° West 200 230 10,900 -1,020 Descending Cleveland Center
06:32PM 43.0208 -78.1922 279° West 191 220 9,900 -1,080 Descending Cleveland Center
06:33PM 43.0439 -78.2764 291° West 193 222 8,700 -1,080 Descending Cleveland Center
06:34PM 43.0636 -78.3364 294° West 178 205 7,700 -1,020 Descending Cleveland Center
06:35PM 43.0836 -78.3950 295° West 174 200 6,700 -1,020 Descending Cleveland Center
06:36PM 43.1039 -78.4489 297° West 162 186 5,600 -1,020 Descending Cleveland Center
06:37PM 43.1067 -78.5028 274° West 145 167 4,600 -780 Descending Cleveland Center
06:38PM 43.1081 -78.5653 272° West 138 159 4,000 -300 Descending Cleveland Center
06:39PM 43.1075 -78.6075 269° West 112 129 4,000  Level Cleveland Center
06:40PM 43.1067 -78.6506 268° West 108 124 4,000 -300 Level Cleveland Center
06:41PM 43.1078 -78.6875 272° West 102 117 3,400 -660 Descending Cleveland Center
06:42PM 43.1092 -78.7353 272° West 117 135 2,700 -600 Descending Cleveland Center
06:43PM 43.1094 -78.7831 270° West 119 137 2,200 -360 Descending Cleveland Center
06:44PM 43.1081 -78.8294 268° West 119 137 2,000 -480 Descending Cleveland Center
06:45PM 43.1089 -78.8783 271° West 120 138 1,300 -540 Descending Cleveland Center
06:46PM 43.1086 -78.9256 270° West 120 138 1,000 -300 Descending Cleveland Center
06:48PM 43.1000 -78.9333 289° West  Level FlightAware Approximate